sensor_id;sensor_type;location;lat;lon;timestamp;P1;durP1;ratioP1;P2;durP2;ratioP2
1593;SDS011;790;47.000;16.084;2023-12-20T00:07:00;11.17;;;8.07;;
1593;SDS011;790;47.000;16.084;2023-12-20T00:13:23;13.73;;;8.30;;
1593;SDS011;790;47.000;16.084;2023-12-20T00:19:44;11.57;;;7.23;;
1593;SDS011;790;47.000;16.084;2023-12-20T00:26:08;9.27;;;6.90;;
1593;SDS011;790;47.000;16.084;2023-12-20T00:32:31;7.50;;;6.50;;
1593;SDS011;790;47.000;16.084;2023-12-20T00:38:53;8.30;;;6.63;;
1593;SDS011;790;47.000;16.084;2023-12-20T00:45:17;8.30;;;6.53;;
1593;SDS011;790;47.000;16.084;2023-12-20T00:51:39;9.43;;;6.87;;
1593;SDS011;790;47.000;16.084;2023-12-20T00:58:01;10.67;;;6.63;;
1593;SDS011;790;47.000;16.084;2023-12-20T01:09:09;9.27;;;6.70;;
1593;SDS011;790;47.000;16.084;2023-12-20T01:15:32;7.97;;;6.63;;
1593;SDS011;790;47.000;16.084;2023-12-20T01:21:54;10.10;;;7.07;;
1593;SDS011;790;47.000;16.084;2023-12-20T01:28:18;9.20;;;7.20;;
1593;SDS011;790;47.000;16.084;2023-12-20T01:34:41;9.90;;;7.20;;
1593;SDS011;790;47.000;16.084;2023-12-20T01:41:03;12.40;;;7.07;;
1593;SDS011;790;47.000;16.084;2023-12-20T01:47:27;9.30;;;6.90;;
1593;SDS011;790;47.000;16.084;2023-12-20T01:53:50;10.83;;;7.03;;
1593;SDS011;790;47.000;16.084;2023-12-20T02:00:12;11.70;;;7.37;;
1593;SDS011;790;47.000;16.084;2023-12-20T02:11:21;8.43;;;7.43;;
1593;SDS011;790;47.000;16.084;2023-12-20T02:17:45;9.23;;;7.00;;
1593;SDS011;790;47.000;16.084;2023-12-20T02:24:10;7.87;;;6.40;;
1593;SDS011;790;47.000;16.084;2023-12-20T02:30:33;10.67;;;7.50;;
1593;SDS011;790;47.000;16.084;2023-12-20T02:36:55;10.90;;;8.23;;
1593;SDS011;790;47.000;16.084;2023-12-20T02:43:18;10.00;;;7.03;;
1593;SDS011;790;47.000;16.084;2023-12-20T02:49:40;9.87;;;7.33;;
1593;SDS011;790;47.000;16.084;2023-12-20T02:56:02;9.10;;;6.70;;
1593;SDS011;790;47.000;16.084;2023-12-20T03:02:26;10.03;;;7.53;;
1593;SDS011;790;47.000;16.084;2023-12-20T03:13:34;11.87;;;6.73;;
1593;SDS011;790;47.000;16.084;2023-12-20T03:19:57;9.47;;;6.93;;
1593;SDS011;790;47.000;16.084;2023-12-20T03:26:20;9.97;;;6.63;;
1593;SDS011;790;47.000;16.084;2023-12-20T03:32:43;11.27;;;7.17;;
1593;SDS011;790;47.000;16.084;2023-12-20T03:39:07;9.53;;;7.03;;
1593;SDS011;790;47.000;16.084;2023-12-20T03:45:30;9.33;;;7.33;;
1593;SDS011;790;47.000;16.084;2023-12-20T03:51:51;8.50;;;7.07;;
1593;SDS011;790;47.000;16.084;2023-12-20T03:58:15;8.10;;;6.83;;
1593;SDS011;790;47.000;16.084;2023-12-20T04:04:38;10.67;;;6.87;;
1593;SDS011;790;47.000;16.084;2023-12-20T04:15:45;8.93;;;6.57;;
1593;SDS011;790;47.000;16.084;2023-12-20T04:22:09;8.87;;;6.67;;
1593;SDS011;790;47.000;16.084;2023-12-20T04:28:32;8.63;;;6.67;;
1593;SDS011;790;47.000;16.084;2023-12-20T04:34:56;8.20;;;6.77;;
1593;SDS011;790;47.000;16.084;2023-12-20T04:41:29;9.07;;;7.30;;
1593;SDS011;790;47.000;16.084;2023-12-20T04:47:52;8.57;;;6.77;;
1593;SDS011;790;47.000;16.084;2023-12-20T04:54:16;16.60;;;8.07;;
1593;SDS011;790;47.000;16.084;2023-12-20T05:00:39;10.20;;;7.37;;
1593;SDS011;790;47.000;16.084;2023-12-20T05:07:01;11.37;;;8.87;;
1593;SDS011;790;47.000;16.084;2023-12-20T05:18:00;18.97;;;11.93;;
1593;SDS011;790;47.000;16.084;2023-12-20T05:24:23;18.00;;;12.87;;
1593;SDS011;790;47.000;16.084;2023-12-20T05:30:46;35.83;;;20.33;;
1593;SDS011;790;47.000;16.084;2023-12-20T05:37:10;22.30;;;15.03;;
1593;SDS011;790;47.000;16.084;2023-12-20T05:43:33;20.77;;;13.10;;
1593;SDS011;790;47.000;16.084;2023-12-20T05:49:56;13.37;;;10.00;;
1593;SDS011;790;47.000;16.084;2023-12-20T05:56:19;12.77;;;9.20;;
1593;SDS011;790;47.000;16.084;2023-12-20T06:02:41;14.07;;;9.70;;
1593;SDS011;790;47.000;16.084;2023-12-20T06:09:04;20.80;;;14.40;;
1593;SDS011;790;47.000;16.084;2023-12-20T06:20:12;17.23;;;13.13;;
1593;SDS011;790;47.000;16.084;2023-12-20T06:26:35;19.57;;;14.43;;
1593;SDS011;790;47.000;16.084;2023-12-20T06:32:57;18.03;;;14.87;;
1593;SDS011;790;47.000;16.084;2023-12-20T06:39:20;20.03;;;14.87;;
1593;SDS011;790;47.000;16.084;2023-12-20T06:45:42;20.60;;;16.63;;
1593;SDS011;790;47.000;16.084;2023-12-20T06:52:04;26.17;;;18.30;;
1593;SDS011;790;47.000;16.084;2023-12-20T06:58:27;21.17;;;16.33;;
1593;SDS011;790;47.000;16.084;2023-12-20T07:04:50;22.90;;;15.47;;
1593;SDS011;790;47.000;16.084;2023-12-20T07:11:13;22.50;;;17.23;;
1593;SDS011;790;47.000;16.084;2023-12-20T07:22:21;24.80;;;18.90;;
1593;SDS011;790;47.000;16.084;2023-12-20T07:28:44;26.20;;;19.70;;
1593;SDS011;790;47.000;16.084;2023-12-20T07:35:07;39.90;;;30.00;;
1593;SDS011;790;47.000;16.084;2023-12-20T07:41:31;34.73;;;26.37;;
1593;SDS011;790;47.000;16.084;2023-12-20T07:47:54;39.80;;;30.63;;
1593;SDS011;790;47.000;16.084;2023-12-20T07:54:16;33.03;;;25.70;;
1593;SDS011;790;47.000;16.084;2023-12-20T08:00:39;34.77;;;27.50;;
1593;SDS011;790;47.000;16.084;2023-12-20T08:07:02;80.07;;;44.40;;
1593;SDS011;790;47.000;16.084;2023-12-20T08:13:25;18.23;;;13.33;;
1593;SDS011;790;47.000;16.084;2023-12-20T08:24:33;24.87;;;17.43;;
1593;SDS011;790;47.000;16.084;2023-12-20T08:30:56;18.07;;;14.07;;
1593;SDS011;790;47.000;16.084;2023-12-20T08:37:18;19.13;;;14.83;;
1593;SDS011;790;47.000;16.084;2023-12-20T08:43:41;25.27;;;19.67;;
1593;SDS011;790;47.000;16.084;2023-12-20T08:50:04;18.87;;;14.60;;
1593;SDS011;790;47.000;16.084;2023-12-20T08:56:27;19.97;;;15.73;;
1593;SDS011;790;47.000;16.084;2023-12-20T09:02:50;24.03;;;16.60;;
1593;SDS011;790;47.000;16.084;2023-12-20T09:09:13;27.20;;;16.47;;
1593;SDS011;790;47.000;16.084;2023-12-20T09:15:35;15.57;;;11.93;;
1593;SDS011;790;47.000;16.084;2023-12-20T09:26:44;16.27;;;12.73;;
1593;SDS011;790;47.000;16.084;2023-12-20T09:33:07;14.03;;;11.60;;
1593;SDS011;790;47.000;16.084;2023-12-20T09:39:29;16.40;;;12.67;;
1593;SDS011;790;47.000;16.084;2023-12-20T09:45:53;21.00;;;18.83;;
1593;SDS011;790;47.000;16.084;2023-12-20T09:52:16;20.13;;;13.67;;
1593;SDS011;790;47.000;16.084;2023-12-20T09:58:41;16.23;;;11.87;;
1593;SDS011;790;47.000;16.084;2023-12-20T10:05:06;19.80;;;13.73;;
1593;SDS011;790;47.000;16.084;2023-12-20T10:11:34;16.23;;;12.97;;
1593;SDS011;790;47.000;16.084;2023-12-20T10:17:58;15.20;;;12.37;;
1593;SDS011;790;47.000;16.084;2023-12-20T10:29:15;30.53;;;19.70;;
1593;SDS011;790;47.000;16.084;2023-12-20T10:35:39;21.67;;;15.00;;
1593;SDS011;790;47.000;16.084;2023-12-20T10:42:02;23.40;;;15.63;;
1593;SDS011;790;47.000;16.084;2023-12-20T10:48:26;19.97;;;14.63;;
1593;SDS011;790;47.000;16.084;2023-12-20T10:54:50;15.37;;;13.47;;
1593;SDS011;790;47.000;16.084;2023-12-20T11:01:13;23.73;;;17.87;;
1593;SDS011;790;47.000;16.084;2023-12-20T11:07:38;19.10;;;15.30;;
1593;SDS011;790;47.000;16.084;2023-12-20T11:14:05;13.83;;;12.33;;
1593;SDS011;790;47.000;16.084;2023-12-20T11:20:35;18.87;;;15.40;;
1593;SDS011;790;47.000;16.084;2023-12-20T11:31:55;18.83;;;14.17;;
1593;SDS011;790;47.000;16.084;2023-12-20T11:38:19;22.53;;;16.60;;
1593;SDS011;790;47.000;16.084;2023-12-20T11:44:42;23.37;;;16.70;;
1593;SDS011;790;47.000;16.084;2023-12-20T11:51:10;35.03;;;29.17;;
1593;SDS011;790;47.000;16.084;2023-12-20T11:57:33;18.27;;;16.37;;
1593;SDS011;790;47.000;16.084;2023-12-20T12:04:02;17.90;;;14.10;;
1593;SDS011;790;47.000;16.084;2023-12-20T12:10:26;16.43;;;12.60;;
1593;SDS011;790;47.000;16.084;2023-12-20T12:16:51;37.57;;;24.20;;
1593;SDS011;790;47.000;16.084;2023-12-20T12:23:13;25.07;;;16.27;;
1593;SDS011;790;47.000;16.084;2023-12-20T12:34:31;20.40;;;15.00;;
1593;SDS011;790;47.000;16.084;2023-12-20T12:40:54;27.03;;;17.73;;
1593;SDS011;790;47.000;16.084;2023-12-20T12:47:18;20.43;;;16.50;;
1593;SDS011;790;47.000;16.084;2023-12-20T12:53:41;20.20;;;15.50;;
1593;SDS011;790;47.000;16.084;2023-12-20T13:00:04;35.73;;;26.27;;
1593;SDS011;790;47.000;16.084;2023-12-20T13:06:29;26.60;;;20.53;;
1593;SDS011;790;47.000;16.084;2023-12-20T13:12:53;25.13;;;19.00;;
1593;SDS011;790;47.000;16.084;2023-12-20T13:19:16;22.47;;;19.67;;
1593;SDS011;790;47.000;16.084;2023-12-20T13:25:39;22.23;;;18.53;;
1593;SDS011;790;47.000;16.084;2023-12-20T13:36:57;25.70;;;15.13;;
1593;SDS011;790;47.000;16.084;2023-12-20T13:43:20;18.90;;;15.07;;
1593;SDS011;790;47.000;16.084;2023-12-20T13:49:42;20.90;;;15.10;;
1593;SDS011;790;47.000;16.084;2023-12-20T13:56:16;18.87;;;14.43;;
1593;SDS011;790;47.000;16.084;2023-12-20T14:02:40;21.70;;;13.97;;
1593;SDS011;790;47.000;16.084;2023-12-20T14:09:04;21.83;;;15.43;;
1593;SDS011;790;47.000;16.084;2023-12-20T14:15:27;19.17;;;15.77;;
1593;SDS011;790;47.000;16.084;2023-12-20T14:22:00;19.23;;;15.80;;
1593;SDS011;790;47.000;16.084;2023-12-20T14:28:24;18.67;;;15.23;;
1593;SDS011;790;47.000;16.084;2023-12-20T14:39:43;16.40;;;13.27;;
1593;SDS011;790;47.000;16.084;2023-12-20T14:46:05;14.30;;;12.80;;
1593;SDS011;790;47.000;16.084;2023-12-20T14:52:28;15.80;;;13.07;;
1593;SDS011;790;47.000;16.084;2023-12-20T14:58:51;15.17;;;13.53;;
1593;SDS011;790;47.000;16.084;2023-12-20T15:05:14;20.87;;;17.40;;
1593;SDS011;790;47.000;16.084;2023-12-20T15:11:37;19.67;;;16.67;;
1593;SDS011;790;47.000;16.084;2023-12-20T15:18:00;20.20;;;14.43;;
1593;SDS011;790;47.000;16.084;2023-12-20T15:24:23;15.87;;;13.73;;
1593;SDS011;790;47.000;16.084;2023-12-20T15:30:48;12.13;;;10.60;;
1593;SDS011;790;47.000;16.084;2023-12-20T15:42:05;14.27;;;11.90;;
1593;SDS011;790;47.000;16.084;2023-12-20T15:48:28;12.57;;;10.53;;
1593;SDS011;790;47.000;16.084;2023-12-20T15:54:51;17.67;;;14.80;;
1593;SDS011;790;47.000;16.084;2023-12-20T16:01:14;25.90;;;20.93;;
1593;SDS011;790;47.000;16.084;2023-12-20T16:07:37;28.03;;;21.47;;
1593;SDS011;790;47.000;16.084;2023-12-20T16:13:59;40.27;;;30.10;;
1593;SDS011;790;47.000;16.084;2023-12-20T16:20:22;29.00;;;22.63;;
1593;SDS011;790;47.000;16.084;2023-12-20T16:26:45;22.53;;;18.57;;
1593;SDS011;790;47.000;16.084;2023-12-20T16:33:07;26.40;;;21.40;;
1593;SDS011;790;47.000;16.084;2023-12-20T16:44:16;20.80;;;15.73;;
1593;SDS011;790;47.000;16.084;2023-12-20T16:50:38;18.40;;;15.60;;
1593;SDS011;790;47.000;16.084;2023-12-20T16:57:00;18.47;;;15.37;;
1593;SDS011;790;47.000;16.084;2023-12-20T17:03:24;20.03;;;15.87;;
1593;SDS011;790;47.000;16.084;2023-12-20T17:09:46;21.13;;;17.20;;
1593;SDS011;790;47.000;16.084;2023-12-20T17:16:09;21.80;;;16.70;;
1593;SDS011;790;47.000;16.084;2023-12-20T17:22:34;18.63;;;15.30;;
1593;SDS011;790;47.000;16.084;2023-12-20T17:28:56;16.67;;;14.27;;
1593;SDS011;790;47.000;16.084;2023-12-20T17:35:18;20.30;;;15.33;;
1593;SDS011;790;47.000;16.084;2023-12-20T17:46:27;21.20;;;16.70;;
1593;SDS011;790;47.000;16.084;2023-12-20T17:52:49;30.90;;;21.77;;
1593;SDS011;790;47.000;16.084;2023-12-20T17:59:11;55.70;;;36.33;;
1593;SDS011;790;47.000;16.084;2023-12-20T18:05:35;57.93;;;39.03;;
1593;SDS011;790;47.000;16.084;2023-12-20T18:11:58;42.30;;;28.33;;
1593;SDS011;790;47.000;16.084;2023-12-20T18:18:20;77.33;;;44.83;;
1593;SDS011;790;47.000;16.084;2023-12-20T18:24:43;53.70;;;38.00;;
1593;SDS011;790;47.000;16.084;2023-12-20T18:31:06;58.20;;;45.27;;
1593;SDS011;790;47.000;16.084;2023-12-20T18:37:28;51.73;;;41.13;;
1593;SDS011;790;47.000;16.084;2023-12-20T18:48:36;68.57;;;50.10;;
1593;SDS011;790;47.000;16.084;2023-12-20T18:55:00;38.47;;;28.53;;
1593;SDS011;790;47.000;16.084;2023-12-20T19:01:22;32.67;;;25.63;;
1593;SDS011;790;47.000;16.084;2023-12-20T19:07:45;35.27;;;26.90;;
1593;SDS011;790;47.000;16.084;2023-12-20T19:14:08;30.87;;;23.10;;
1593;SDS011;790;47.000;16.084;2023-12-20T19:20:33;30.70;;;23.07;;
1593;SDS011;790;47.000;16.084;2023-12-20T19:26:57;32.00;;;25.93;;
1593;SDS011;790;47.000;16.084;2023-12-20T19:33:19;40.63;;;31.43;;
1593;SDS011;790;47.000;16.084;2023-12-20T19:39:43;28.50;;;23.83;;
1593;SDS011;790;47.000;16.084;2023-12-20T19:50:53;33.73;;;25.93;;
1593;SDS011;790;47.000;16.084;2023-12-20T19:57:16;31.67;;;24.97;;
1593;SDS011;790;47.000;16.084;2023-12-20T20:03:38;33.23;;;24.13;;
1593;SDS011;790;47.000;16.084;2023-12-20T20:10:03;36.90;;;27.97;;
1593;SDS011;790;47.000;16.084;2023-12-20T20:16:25;30.03;;;22.87;;
1593;SDS011;790;47.000;16.084;2023-12-20T20:22:48;28.80;;;22.67;;
1593;SDS011;790;47.000;16.084;2023-12-20T20:29:13;31.10;;;24.43;;
1593;SDS011;790;47.000;16.084;2023-12-20T20:35:37;34.27;;;25.60;;
1593;SDS011;790;47.000;16.084;2023-12-20T20:41:59;30.43;;;23.10;;
1593;SDS011;790;47.000;16.084;2023-12-20T20:53:07;27.17;;;21.77;;
1593;SDS011;790;47.000;16.084;2023-12-20T20:59:30;28.03;;;21.97;;
1593;SDS011;790;47.000;16.084;2023-12-20T21:05:53;23.80;;;20.07;;
1593;SDS011;790;47.000;16.084;2023-12-20T21:12:17;23.40;;;18.87;;
1593;SDS011;790;47.000;16.084;2023-12-20T21:18:40;28.70;;;20.10;;
1593;SDS011;790;47.000;16.084;2023-12-20T21:25:03;30.77;;;20.90;;
1593;SDS011;790;47.000;16.084;2023-12-20T21:31:28;32.50;;;19.30;;
1593;SDS011;790;47.000;16.084;2023-12-20T21:41:44;29.20;;;20.20;;
1593;SDS011;790;47.000;16.084;2023-12-20T21:52:03;27.30;;;20.10;;
1593;SDS011;790;47.000;16.084;2023-12-20T21:58:26;22.97;;;17.70;;
1593;SDS011;790;47.000;16.084;2023-12-20T22:04:49;23.00;;;16.70;;
1593;SDS011;790;47.000;16.084;2023-12-20T22:11:13;23.17;;;16.60;;
1593;SDS011;790;47.000;16.084;2023-12-20T22:17:36;20.33;;;15.93;;
1593;SDS011;790;47.000;16.084;2023-12-20T22:23:59;20.57;;;16.17;;
1593;SDS011;790;47.000;16.084;2023-12-20T22:30:24;21.23;;;15.93;;
1593;SDS011;790;47.000;16.084;2023-12-20T22:36:46;21.77;;;16.30;;
1593;SDS011;790;47.000;16.084;2023-12-20T22:43:10;19.87;;;15.40;;
1593;SDS011;790;47.000;16.084;2023-12-20T22:53:49;17.07;;;14.63;;
1593;SDS011;790;47.000;16.084;2023-12-20T23:00:15;19.03;;;16.17;;
1593;SDS011;790;47.000;16.084;2023-12-20T23:06:44;21.43;;;15.93;;
1593;SDS011;790;47.000;16.084;2023-12-20T23:13:09;20.67;;;16.47;;
1593;SDS011;790;47.000;16.084;2023-12-20T23:19:31;22.83;;;17.03;;
1593;SDS011;790;47.000;16.084;2023-12-20T23:25:54;23.40;;;18.57;;
1593;SDS011;790;47.000;16.084;2023-12-20T23:32:30;21.00;;;17.30;;
1593;SDS011;790;47.000;16.084;2023-12-20T23:39:13;20.77;;;16.40;;
1593;SDS011;790;47.000;16.084;2023-12-20T23:45:36;25.33;;;17.93;;
1593;SDS011;790;47.000;16.084;2023-12-20T23:56:36;20.40;;;15.37;;
